sensor_id;sensor_type;location;lat;lon;timestamp;temperature;humidity
49549;DHT22;35450;44.518;7.466;2023-07-22T00:02:13;23.20;99.90
49549;DHT22;35450;44.518;7.466;2023-07-22T00:05:17;23.40;99.90
49549;DHT22;35450;44.518;7.466;2023-07-22T00:08:26;23.30;99.90
49549;DHT22;35450;44.518;7.466;2023-07-22T00:11:31;23.30;99.90
49549;DHT22;35450;44.518;7.466;2023-07-22T00:14:39;23.20;99.90
49549;DHT22;35450;44.518;7.466;2023-07-22T00:17:43;23.20;99.90
49549;DHT22;35450;44.518;7.466;2023-07-22T00:20:48;23.50;99.90
49549;DHT22;35450;44.518;7.466;2023-07-22T00:23:52;23.70;99.60
49549;DHT22;35450;44.518;7.466;2023-07-22T00:26:57;23.40;99.90
49549;DHT22;35450;44.518;7.466;2023-07-22T00:30:01;23.60;99.90
49549;DHT22;35450;44.518;7.466;2023-07-22T00:33:05;23.50;99.90
49549;DHT22;35450;44.518;7.466;2023-07-22T00:36:09;23.70;99.90
49549;DHT22;35450;44.518;7.466;2023-07-22T00:39:13;23.60;99.90
49549;DHT22;35450;44.518;7.466;2023-07-22T00:42:20;23.90;99.60
49549;DHT22;35450;44.518;7.466;2023-07-22T00:45:24;23.90;99.50
49549;DHT22;35450;44.518;7.466;2023-07-22T00:48:29;23.70;99.60
49549;DHT22;35450;44.518;7.466;2023-07-22T00:51:34;23.40;99.90
49549;DHT22;35450;44.518;7.466;2023-07-22T00:54:38;23.30;99.90
49549;DHT22;35450;44.518;7.466;2023-07-22T00:57:42;22.90;99.90
49549;DHT22;35450;44.518;7.466;2023-07-22T01:00:46;22.90;99.90
49549;DHT22;35450;44.518;7.466;2023-07-22T01:03:50;23.10;99.90
49549;DHT22;35450;44.518;7.466;2023-07-22T01:06:54;23.30;99.90
49549;DHT22;35450;44.518;7.466;2023-07-22T01:09:58;23.40;99.90
49549;DHT22;35450;44.518;7.466;2023-07-22T01:13:04;23.80;99.90
49549;DHT22;35450;44.518;7.466;2023-07-22T01:16:08;23.90;99.90
49549;DHT22;35450;44.518;7.466;2023-07-22T01:19:15;24.10;99.90
49549;DHT22;35450;44.518;7.466;2023-07-22T01:22:22;23.80;99.90
49549;DHT22;35450;44.518;7.466;2023-07-22T01:25:27;23.50;99.90
49549;DHT22;35450;44.518;7.466;2023-07-22T01:28:35;23.40;99.90
49549;DHT22;35450;44.518;7.466;2023-07-22T01:31:40;23.30;99.90
49549;DHT22;35450;44.518;7.466;2023-07-22T01:34:44;23.30;99.90
49549;DHT22;35450;44.518;7.466;2023-07-22T01:37:48;23.40;99.90
49549;DHT22;35450;44.518;7.466;2023-07-22T01:40:52;23.40;99.90
49549;DHT22;35450;44.518;7.466;2023-07-22T01:43:56;23.70;99.90
49549;DHT22;35450;44.518;7.466;2023-07-22T01:47:03;23.80;99.90
49549;DHT22;35450;44.518;7.466;2023-07-22T01:50:08;23.90;99.90
49549;DHT22;35450;44.518;7.466;2023-07-22T01:53:12;23.80;99.90
49549;DHT22;35450;44.518;7.466;2023-07-22T01:56:16;23.60;99.90
49549;DHT22;35450;44.518;7.466;2023-07-22T01:59:21;23.50;99.90
49549;DHT22;35450;44.518;7.466;2023-07-22T02:02:25;23.50;99.90
49549;DHT22;35450;44.518;7.466;2023-07-22T02:05:29;23.50;99.90
49549;DHT22;35450;44.518;7.466;2023-07-22T02:08:34;23.30;99.90
49549;DHT22;35450;44.518;7.466;2023-07-22T02:11:40;23.10;99.90
49549;DHT22;35450;44.518;7.466;2023-07-22T02:14:44;23.20;99.90
49549;DHT22;35450;44.518;7.466;2023-07-22T02:17:48;23.30;99.90
49549;DHT22;35450;44.518;7.466;2023-07-22T02:20:52;23.40;99.90
49549;DHT22;35450;44.518;7.466;2023-07-22T02:23:57;23.70;99.90
49549;DHT22;35450;44.518;7.466;2023-07-22T02:27:01;23.60;99.90
49549;DHT22;35450;44.518;7.466;2023-07-22T02:30:05;23.50;99.90
49549;DHT22;35450;44.518;7.466;2023-07-22T02:33:11;23.30;99.90
49549;DHT22;35450;44.518;7.466;2023-07-22T02:36:16;23.20;99.90
49549;DHT22;35450;44.518;7.466;2023-07-22T02:39:20;23.30;99.90
49549;DHT22;35450;44.518;7.466;2023-07-22T02:42:23;23.30;99.90
49549;DHT22;35450;44.518;7.466;2023-07-22T02:45:27;23.70;99.90
49549;DHT22;35450;44.518;7.466;2023-07-22T02:48:32;23.80;99.90
49549;DHT22;35450;44.518;7.466;2023-07-22T02:51:36;24.00;99.90
49549;DHT22;35450;44.518;7.466;2023-07-22T02:54:40;23.90;99.90
49549;DHT22;35450;44.518;7.466;2023-07-22T02:57:45;24.00;99.90
49549;DHT22;35450;44.518;7.466;2023-07-22T03:00:50;24.10;99.90
49549;DHT22;35450;44.518;7.466;2023-07-22T03:03:54;24.10;99.80
49549;DHT22;35450;44.518;7.466;2023-07-22T03:06:58;24.10;99.70
49549;DHT22;35450;44.518;7.466;2023-07-22T03:10:08;24.10;99.40
49549;DHT22;35450;44.518;7.466;2023-07-22T03:13:12;24.00;99.40
49549;DHT22;35450;44.518;7.466;2023-07-22T03:16:16;24.00;99.50
49549;DHT22;35450;44.518;7.466;2023-07-22T03:19:20;24.10;99.70
49549;DHT22;35450;44.518;7.466;2023-07-22T03:22:24;24.20;99.70
49549;DHT22;35450;44.518;7.466;2023-07-22T03:25:28;23.80;99.90
49549;DHT22;35450;44.518;7.466;2023-07-22T03:28:32;23.50;99.90
49549;DHT22;35450;44.518;7.466;2023-07-22T03:31:37;23.40;99.90
49549;DHT22;35450;44.518;7.466;2023-07-22T03:34:41;23.20;99.90
49549;DHT22;35450;44.518;7.466;2023-07-22T03:37:45;23.30;99.90
49549;DHT22;35450;44.518;7.466;2023-07-22T03:40:49;23.60;99.90
49549;DHT22;35450;44.518;7.466;2023-07-22T03:43:53;23.80;99.90
49549;DHT22;35450;44.518;7.466;2023-07-22T03:46:56;23.70;99.90
49549;DHT22;35450;44.518;7.466;2023-07-22T03:50:02;23.80;99.90
49549;DHT22;35450;44.518;7.466;2023-07-22T03:53:06;23.50;99.90
49549;DHT22;35450;44.518;7.466;2023-07-22T03:56:10;23.20;99.90
49549;DHT22;35450;44.518;7.466;2023-07-22T03:59:14;23.10;99.90
49549;DHT22;35450;44.518;7.466;2023-07-22T04:02:18;23.20;99.90
49549;DHT22;35450;44.518;7.466;2023-07-22T04:05:22;23.40;99.90
49549;DHT22;35450;44.518;7.466;2023-07-22T04:08:27;23.60;99.90
49549;DHT22;35450;44.518;7.466;2023-07-22T04:11:31;23.90;99.80
49549;DHT22;35450;44.518;7.466;2023-07-22T04:14:35;23.50;99.90
49549;DHT22;35450;44.518;7.466;2023-07-22T04:17:39;23.70;99.90
49549;DHT22;35450;44.518;7.466;2023-07-22T04:20:44;23.70;99.90
49549;DHT22;35450;44.518;7.466;2023-07-22T04:23:49;23.80;99.90
49549;DHT22;35450;44.518;7.466;2023-07-22T04:26:53;23.90;99.50
49549;DHT22;35450;44.518;7.466;2023-07-22T04:29:57;24.00;98.80
49549;DHT22;35450;44.518;7.466;2023-07-22T04:33:01;24.10;98.80
49549;DHT22;35450;44.518;7.466;2023-07-22T04:36:05;24.00;99.00
49549;DHT22;35450;44.518;7.466;2023-07-22T04:39:11;23.80;99.30
49549;DHT22;35450;44.518;7.466;2023-07-22T04:42:15;23.70;99.60
49549;DHT22;35450;44.518;7.466;2023-07-22T04:45:20;23.60;98.90
49549;DHT22;35450;44.518;7.466;2023-07-22T04:48:24;23.30;98.30
49549;DHT22;35450;44.518;7.466;2023-07-22T04:51:28;23.40;97.60
49549;DHT22;35450;44.518;7.466;2023-07-22T04:54:32;23.10;96.90
49549;DHT22;35450;44.518;7.466;2023-07-22T04:57:37;22.60;98.40
49549;DHT22;35450;44.518;7.466;2023-07-22T05:00:41;22.30;99.20
49549;DHT22;35450;44.518;7.466;2023-07-22T05:03:46;22.40;99.80
49549;DHT22;35450;44.518;7.466;2023-07-22T05:06:50;22.50;99.90
49549;DHT22;35450;44.518;7.466;2023-07-22T05:09:55;22.50;99.90
49549;DHT22;35450;44.518;7.466;2023-07-22T05:12:59;22.70;99.90
49549;DHT22;35450;44.518;7.466;2023-07-22T05:16:03;22.70;99.80
49549;DHT22;35450;44.518;7.466;2023-07-22T05:19:08;23.10;99.30
49549;DHT22;35450;44.518;7.466;2023-07-22T05:22:12;23.40;98.80
49549;DHT22;35450;44.518;7.466;2023-07-22T05:25:16;23.40;98.10
49549;DHT22;35450;44.518;7.466;2023-07-22T05:28:20;23.50;97.90
49549;DHT22;35450;44.518;7.466;2023-07-22T05:31:23;23.50;96.90
49549;DHT22;35450;44.518;7.466;2023-07-22T05:34:28;23.70;96.20
49549;DHT22;35450;44.518;7.466;2023-07-22T05:37:32;23.60;96.30
49549;DHT22;35450;44.518;7.466;2023-07-22T05:40:36;23.80;96.00
49549;DHT22;35450;44.518;7.466;2023-07-22T05:43:40;23.80;96.20
49549;DHT22;35450;44.518;7.466;2023-07-22T05:46:44;23.80;96.10
49549;DHT22;35450;44.518;7.466;2023-07-22T05:49:48;23.50;96.00
49549;DHT22;35450;44.518;7.466;2023-07-22T05:52:52;23.40;95.70
49549;DHT22;35450;44.518;7.466;2023-07-22T05:55:56;23.50;95.80
49549;DHT22;35450;44.518;7.466;2023-07-22T05:59:00;23.50;95.90
49549;DHT22;35450;44.518;7.466;2023-07-22T06:02:04;23.60;95.60
49549;DHT22;35450;44.518;7.466;2023-07-22T06:05:09;23.80;95.20
49549;DHT22;35450;44.518;7.466;2023-07-22T06:08:13;24.00;94.80
49549;DHT22;35450;44.518;7.466;2023-07-22T06:11:17;24.00;93.90
49549;DHT22;35450;44.518;7.466;2023-07-22T06:14:21;24.00;93.70
49549;DHT22;35450;44.518;7.466;2023-07-22T06:17:25;24.10;93.60
49549;DHT22;35450;44.518;7.466;2023-07-22T06:20:29;24.00;94.10
49549;DHT22;35450;44.518;7.466;2023-07-22T06:23:34;24.20;94.30
49549;DHT22;35450;44.518;7.466;2023-07-22T06:26:37;24.10;94.30
49549;DHT22;35450;44.518;7.466;2023-07-22T06:29:42;24.10;94.30
49549;DHT22;35450;44.518;7.466;2023-07-22T06:32:46;24.10;94.10
49549;DHT22;35450;44.518;7.466;2023-07-22T06:35:52;24.10;94.10
49549;DHT22;35450;44.518;7.466;2023-07-22T06:38:56;24.10;94.20
49549;DHT22;35450;44.518;7.466;2023-07-22T06:42:00;24.30;94.20
49549;DHT22;35450;44.518;7.466;2023-07-22T06:45:05;24.30;94.70
49549;DHT22;35450;44.518;7.466;2023-07-22T06:48:09;24.40;94.50
49549;DHT22;35450;44.518;7.466;2023-07-22T06:51:13;24.40;94.30
49549;DHT22;35450;44.518;7.466;2023-07-22T06:54:17;24.30;94.40
49549;DHT22;35450;44.518;7.466;2023-07-22T06:57:21;24.20;94.30
49549;DHT22;35450;44.518;7.466;2023-07-22T07:00:25;24.20;94.80
49549;DHT22;35450;44.518;7.466;2023-07-22T07:03:29;24.40;94.50
49549;DHT22;35450;44.518;7.466;2023-07-22T07:06:34;24.50;95.20
49549;DHT22;35450;44.518;7.466;2023-07-22T07:09:38;24.50;95.00
49549;DHT22;35450;44.518;7.466;2023-07-22T07:12:42;24.50;95.60
49549;DHT22;35450;44.518;7.466;2023-07-22T07:15:47;24.30;96.00
49549;DHT22;35450;44.518;7.466;2023-07-22T07:18:54;24.30;96.50
49549;DHT22;35450;44.518;7.466;2023-07-22T07:21:59;24.40;96.80
49549;DHT22;35450;44.518;7.466;2023-07-22T07:25:03;24.60;96.70
49549;DHT22;35450;44.518;7.466;2023-07-22T07:28:07;25.00;96.90
49549;DHT22;35450;44.518;7.466;2023-07-22T07:31:12;25.20;96.40
49549;DHT22;35450;44.518;7.466;2023-07-22T07:34:15;25.40;96.30
49549;DHT22;35450;44.518;7.466;2023-07-22T07:37:19;25.60;96.00
49549;DHT22;35450;44.518;7.466;2023-07-22T07:40:24;25.50;96.10
49549;DHT22;35450;44.518;7.466;2023-07-22T07:43:30;25.60;95.90
49549;DHT22;35450;44.518;7.466;2023-07-22T07:46:34;25.70;96.00
49549;DHT22;35450;44.518;7.466;2023-07-22T07:49:38;25.60;96.30
49549;DHT22;35450;44.518;7.466;2023-07-22T07:52:42;25.70;96.40
49549;DHT22;35450;44.518;7.466;2023-07-22T07:55:46;25.60;96.30
49549;DHT22;35450;44.518;7.466;2023-07-22T07:58:51;25.50;96.60
49549;DHT22;35450;44.518;7.466;2023-07-22T08:01:55;25.30;96.90
49549;DHT22;35450;44.518;7.466;2023-07-22T08:04:59;25.30;96.70
49549;DHT22;35450;44.518;7.466;2023-07-22T08:08:04;25.10;97.20
49549;DHT22;35450;44.518;7.466;2023-07-22T08:11:09;25.10;97.30
49549;DHT22;35450;44.518;7.466;2023-07-22T08:14:14;25.10;97.30
49549;DHT22;35450;44.518;7.466;2023-07-22T08:17:18;25.10;97.20
49549;DHT22;35450;44.518;7.466;2023-07-22T08:20:22;25.20;97.60
49549;DHT22;35450;44.518;7.466;2023-07-22T08:23:26;25.40;97.40
49549;DHT22;35450;44.518;7.466;2023-07-22T08:26:30;25.40;97.00
49549;DHT22;35450;44.518;7.466;2023-07-22T08:29:34;25.50;96.80
49549;DHT22;35450;44.518;7.466;2023-07-22T08:32:38;25.50;96.50
49549;DHT22;35450;44.518;7.466;2023-07-22T08:35:42;25.50;96.60
49549;DHT22;35450;44.518;7.466;2023-07-22T08:38:47;25.70;96.30
49549;DHT22;35450;44.518;7.466;2023-07-22T08:41:51;25.60;96.90
49549;DHT22;35450;44.518;7.466;2023-07-22T08:44:57;25.60;96.70
49549;DHT22;35450;44.518;7.466;2023-07-22T08:48:06;25.80;95.60
49549;DHT22;35450;44.518;7.466;2023-07-22T08:51:15;25.80;95.70
49549;DHT22;35450;44.518;7.466;2023-07-22T08:54:21;25.90;96.00
49549;DHT22;35450;44.518;7.466;2023-07-22T08:57:27;25.80;96.70
49549;DHT22;35450;44.518;7.466;2023-07-22T09:00:33;25.90;97.00
49549;DHT22;35450;44.518;7.466;2023-07-22T09:03:38;25.80;96.90
49549;DHT22;35450;44.518;7.466;2023-07-22T09:06:43;25.90;96.90
49549;DHT22;35450;44.518;7.466;2023-07-22T09:09:48;26.00;96.40
49549;DHT22;35450;44.518;7.466;2023-07-22T09:12:52;26.00;96.40
49549;DHT22;35450;44.518;7.466;2023-07-22T09:15:57;26.00;96.50
49549;DHT22;35450;44.518;7.466;2023-07-22T09:19:03;26.10;96.10
49549;DHT22;35450;44.518;7.466;2023-07-22T09:22:08;26.40;96.30
49549;DHT22;35450;44.518;7.466;2023-07-22T09:28:22;26.40;96.30
49549;DHT22;35450;44.518;7.466;2023-07-22T09:31:27;26.50;96.10
49549;DHT22;35450;44.518;7.466;2023-07-22T09:34:34;26.60;95.70
49549;DHT22;35450;44.518;7.466;2023-07-22T09:37:39;26.60;95.80
49549;DHT22;35450;44.518;7.466;2023-07-22T09:40:43;26.50;95.70
49549;DHT22;35450;44.518;7.466;2023-07-22T09:43:47;26.60;95.60
49549;DHT22;35450;44.518;7.466;2023-07-22T09:46:52;26.60;95.00
49549;DHT22;35450;44.518;7.466;2023-07-22T09:49:56;26.20;95.60
49549;DHT22;35450;44.518;7.466;2023-07-22T09:53:00;26.40;96.00
49549;DHT22;35450;44.518;7.466;2023-07-22T09:56:07;26.50;95.10
49549;DHT22;35450;44.518;7.466;2023-07-22T09:59:11;26.40;95.40
49549;DHT22;35450;44.518;7.466;2023-07-22T10:02:18;26.10;95.30
49549;DHT22;35450;44.518;7.466;2023-07-22T10:05:24;25.80;96.30
49549;DHT22;35450;44.518;7.466;2023-07-22T10:08:30;25.90;96.40
49549;DHT22;35450;44.518;7.466;2023-07-22T10:11:37;26.10;95.80
49549;DHT22;35450;44.518;7.466;2023-07-22T10:14:41;26.20;95.50
49549;DHT22;35450;44.518;7.466;2023-07-22T10:17:46;26.40;95.10
49549;DHT22;35450;44.518;7.466;2023-07-22T10:20:50;26.60;95.00
49549;DHT22;35450;44.518;7.466;2023-07-22T10:23:55;26.70;94.50
49549;DHT22;35450;44.518;7.466;2023-07-22T10:27:00;26.80;94.60
49549;DHT22;35450;44.518;7.466;2023-07-22T10:30:04;26.80;94.90
49549;DHT22;35450;44.518;7.466;2023-07-22T10:33:08;26.90;94.50
49549;DHT22;35450;44.518;7.466;2023-07-22T10:36:14;26.90;94.20
49549;DHT22;35450;44.518;7.466;2023-07-22T10:39:27;26.90;94.30
49549;DHT22;35450;44.518;7.466;2023-07-22T10:42:32;26.90;94.20
49549;DHT22;35450;44.518;7.466;2023-07-22T10:45:41;27.00;94.10
49549;DHT22;35450;44.518;7.466;2023-07-22T10:48:46;27.00;94.10
49549;DHT22;35450;44.518;7.466;2023-07-22T10:51:51;26.80;94.90
49549;DHT22;35450;44.518;7.466;2023-07-22T10:54:56;26.80;94.00
49549;DHT22;35450;44.518;7.466;2023-07-22T10:58:04;26.90;93.70
49549;DHT22;35450;44.518;7.466;2023-07-22T11:04:28;27.10;93.40
49549;DHT22;35450;44.518;7.466;2023-07-22T11:07:43;27.20;93.00
49549;DHT22;35450;44.518;7.466;2023-07-22T11:10:54;27.30;92.80
49549;DHT22;35450;44.518;7.466;2023-07-22T11:14:16;27.30;92.30
49549;DHT22;35450;44.518;7.466;2023-07-22T11:17:38;27.40;92.80
49549;DHT22;35450;44.518;7.466;2023-07-22T11:20:42;27.40;92.60
49549;DHT22;35450;44.518;7.466;2023-07-22T11:23:47;27.30;92.60
49549;DHT22;35450;44.518;7.466;2023-07-22T11:26:52;27.40;92.90
49549;DHT22;35450;44.518;7.466;2023-07-22T11:29:58;27.30;92.80
49549;DHT22;35450;44.518;7.466;2023-07-22T11:33:01;27.10;92.70
49549;DHT22;35450;44.518;7.466;2023-07-22T11:36:05;27.10;93.20
49549;DHT22;35450;44.518;7.466;2023-07-22T11:39:16;27.00;93.80
49549;DHT22;35450;44.518;7.466;2023-07-22T11:42:21;27.10;93.40
49549;DHT22;35450;44.518;7.466;2023-07-22T11:45:24;27.10;93.00
49549;DHT22;35450;44.518;7.466;2023-07-22T11:48:28;27.20;93.00
49549;DHT22;35450;44.518;7.466;2023-07-22T11:51:32;27.10;92.80
49549;DHT22;35450;44.518;7.466;2023-07-22T11:54:42;27.20;92.60
49549;DHT22;35450;44.518;7.466;2023-07-22T11:57:52;27.30;92.60
49549;DHT22;35450;44.518;7.466;2023-07-22T12:01:06;27.30;92.80
49549;DHT22;35450;44.518;7.466;2023-07-22T12:04:15;27.40;92.70
49549;DHT22;35450;44.518;7.466;2023-07-22T12:10:29;27.50;92.40
49549;DHT22;35450;44.518;7.466;2023-07-22T12:13:37;27.60;92.30
49549;DHT22;35450;44.518;7.466;2023-07-22T12:16:42;27.50;92.60
49549;DHT22;35450;44.518;7.466;2023-07-22T12:19:52;27.60;92.10
49549;DHT22;35450;44.518;7.466;2023-07-22T12:22:57;27.50;92.30
49549;DHT22;35450;44.518;7.466;2023-07-22T12:26:01;27.50;92.30
49549;DHT22;35450;44.518;7.466;2023-07-22T12:29:05;27.50;92.40
49549;DHT22;35450;44.518;7.466;2023-07-22T12:32:09;27.60;92.00
49549;DHT22;35450;44.518;7.466;2023-07-22T12:35:13;27.60;91.90
49549;DHT22;35450;44.518;7.466;2023-07-22T12:38:17;27.40;91.80
49549;DHT22;35450;44.518;7.466;2023-07-22T12:41:22;27.50;91.30
49549;DHT22;35450;44.518;7.466;2023-07-22T12:44:26;27.40;91.30
49549;DHT22;35450;44.518;7.466;2023-07-22T12:47:30;27.40;91.10
49549;DHT22;35450;44.518;7.466;2023-07-22T12:50:34;27.50;91.70
49549;DHT22;35450;44.518;7.466;2023-07-22T12:53:38;27.60;91.80
49549;DHT22;35450;44.518;7.466;2023-07-22T12:56:42;27.60;91.90
49549;DHT22;35450;44.518;7.466;2023-07-22T12:59:47;27.70;91.20
49549;DHT22;35450;44.518;7.466;2023-07-22T13:02:51;27.70;91.20
49549;DHT22;35450;44.518;7.466;2023-07-22T13:05:55;27.90;91.20
49549;DHT22;35450;44.518;7.466;2023-07-22T13:08:59;27.90;91.00
49549;DHT22;35450;44.518;7.466;2023-07-22T13:12:03;28.00;91.10
49549;DHT22;35450;44.518;7.466;2023-07-22T13:15:07;28.20;90.90
49549;DHT22;35450;44.518;7.466;2023-07-22T13:18:12;28.30;90.80
49549;DHT22;35450;44.518;7.466;2023-07-22T13:21:17;28.20;90.80
49549;DHT22;35450;44.518;7.466;2023-07-22T13:24:21;28.30;90.60
49549;DHT22;35450;44.518;7.466;2023-07-22T13:27:25;28.30;90.10
49549;DHT22;35450;44.518;7.466;2023-07-22T13:30:29;28.30;89.60
49549;DHT22;35450;44.518;7.466;2023-07-22T13:33:33;28.20;88.80
49549;DHT22;35450;44.518;7.466;2023-07-22T13:36:37;28.20;90.20
49549;DHT22;35450;44.518;7.466;2023-07-22T13:39:41;28.30;90.40
49549;DHT22;35450;44.518;7.466;2023-07-22T13:42:45;28.30;88.90
49549;DHT22;35450;44.518;7.466;2023-07-22T13:45:49;28.40;88.80
49549;DHT22;35450;44.518;7.466;2023-07-22T13:48:53;28.40;88.70
49549;DHT22;35450;44.518;7.466;2023-07-22T13:51:57;28.30;87.70
49549;DHT22;35450;44.518;7.466;2023-07-22T13:55:00;28.30;87.80
49549;DHT22;35450;44.518;7.466;2023-07-22T13:58:04;28.40;87.60
49549;DHT22;35450;44.518;7.466;2023-07-22T14:01:08;28.40;85.80
49549;DHT22;35450;44.518;7.466;2023-07-22T14:04:12;28.50;86.80
49549;DHT22;35450;44.518;7.466;2023-07-22T14:07:16;28.60;86.30
49549;DHT22;35450;44.518;7.466;2023-07-22T14:10:21;28.70;86.50
49549;DHT22;35450;44.518;7.466;2023-07-22T14:13:25;28.80;86.50
49549;DHT22;35450;44.518;7.466;2023-07-22T14:16:29;28.80;86.10
49549;DHT22;35450;44.518;7.466;2023-07-22T14:19:33;28.80;86.60
49549;DHT22;35450;44.518;7.466;2023-07-22T14:22:37;28.80;87.30
49549;DHT22;35450;44.518;7.466;2023-07-22T14:25:41;28.80;87.30
49549;DHT22;35450;44.518;7.466;2023-07-22T14:28:45;28.50;88.40
49549;DHT22;35450;44.518;7.466;2023-07-22T14:31:49;28.70;88.20
49549;DHT22;35450;44.518;7.466;2023-07-22T14:34:53;28.70;87.30
49549;DHT22;35450;44.518;7.466;2023-07-22T14:37:57;28.90;88.00
49549;DHT22;35450;44.518;7.466;2023-07-22T14:41:01;28.90;88.20
49549;DHT22;35450;44.518;7.466;2023-07-22T14:44:06;29.00;88.00
49549;DHT22;35450;44.518;7.466;2023-07-22T14:47:10;29.00;88.30
49549;DHT22;35450;44.518;7.466;2023-07-22T14:50:14;29.10;87.90
49549;DHT22;35450;44.518;7.466;2023-07-22T14:53:18;29.10;88.60
49549;DHT22;35450;44.518;7.466;2023-07-22T14:56:22;29.10;87.70
49549;DHT22;35450;44.518;7.466;2023-07-22T14:59:27;29.00;90.00
49549;DHT22;35450;44.518;7.466;2023-07-22T15:02:30;29.00;89.20
49549;DHT22;35450;44.518;7.466;2023-07-22T15:05:35;28.90;89.10
49549;DHT22;35450;44.518;7.466;2023-07-22T15:08:39;28.90;89.20
49549;DHT22;35450;44.518;7.466;2023-07-22T15:11:43;29.10;89.00
49549;DHT22;35450;44.518;7.466;2023-07-22T15:14:47;29.20;89.20
49549;DHT22;35450;44.518;7.466;2023-07-22T15:17:51;29.40;88.80
49549;DHT22;35450;44.518;7.466;2023-07-22T15:20:55;29.50;88.70
49549;DHT22;35450;44.518;7.466;2023-07-22T15:23:59;29.50;88.40
49549;DHT22;35450;44.518;7.466;2023-07-22T15:27:03;29.60;88.10
49549;DHT22;35450;44.518;7.466;2023-07-22T15:30:07;29.60;87.70
49549;DHT22;35450;44.518;7.466;2023-07-22T15:33:11;29.60;87.70
49549;DHT22;35450;44.518;7.466;2023-07-22T15:36:15;29.90;87.30
49549;DHT22;35450;44.518;7.466;2023-07-22T15:39:19;30.50;86.10
49549;DHT22;35450;44.518;7.466;2023-07-22T15:42:23;30.90;85.30
49549;DHT22;35450;44.518;7.466;2023-07-22T15:45:27;31.40;83.90
49549;DHT22;35450;44.518;7.466;2023-07-22T15:48:31;32.10;83.60
49549;DHT22;35450;44.518;7.466;2023-07-22T15:51:35;32.70;81.60
49549;DHT22;35450;44.518;7.466;2023-07-22T15:54:39;33.20;79.70
49549;DHT22;35450;44.518;7.466;2023-07-22T15:57:43;33.40;78.70
49549;DHT22;35450;44.518;7.466;2023-07-22T16:00:49;33.20;79.20
49549;DHT22;35450;44.518;7.466;2023-07-22T16:03:52;32.80;79.90
49549;DHT22;35450;44.518;7.466;2023-07-22T16:06:57;32.10;81.90
49549;DHT22;35450;44.518;7.466;2023-07-22T16:10:01;31.60;82.80
49549;DHT22;35450;44.518;7.466;2023-07-22T16:13:05;31.20;82.90
49549;DHT22;35450;44.518;7.466;2023-07-22T16:16:08;31.00;83.50
49549;DHT22;35450;44.518;7.466;2023-07-22T16:19:12;30.90;83.70
49549;DHT22;35450;44.518;7.466;2023-07-22T16:22:17;30.70;83.80
49549;DHT22;35450;44.518;7.466;2023-07-22T16:25:21;30.60;84.80
49549;DHT22;35450;44.518;7.466;2023-07-22T16:28:24;30.20;86.20
49549;DHT22;35450;44.518;7.466;2023-07-22T16:31:28;30.10;85.80
49549;DHT22;35450;44.518;7.466;2023-07-22T16:34:36;30.10;85.90
49549;DHT22;35450;44.518;7.466;2023-07-22T16:37:40;29.80;85.60
49549;DHT22;35450;44.518;7.466;2023-07-22T16:40:45;29.90;85.40
49549;DHT22;35450;44.518;7.466;2023-07-22T16:43:49;30.00;85.00
49549;DHT22;35450;44.518;7.466;2023-07-22T16:46:53;29.90;84.90
49549;DHT22;35450;44.518;7.466;2023-07-22T16:49:57;29.80;85.20
49549;DHT22;35450;44.518;7.466;2023-07-22T16:53:01;29.80;85.30
49549;DHT22;35450;44.518;7.466;2023-07-22T16:56:07;29.80;86.40
49549;DHT22;35450;44.518;7.466;2023-07-22T16:59:11;29.80;86.20
49549;DHT22;35450;44.518;7.466;2023-07-22T17:02:15;30.00;85.60
49549;DHT22;35450;44.518;7.466;2023-07-22T17:05:19;30.10;85.30
49549;DHT22;35450;44.518;7.466;2023-07-22T17:08:23;30.00;85.00
49549;DHT22;35450;44.518;7.466;2023-07-22T17:11:27;29.80;86.30
49549;DHT22;35450;44.518;7.466;2023-07-22T17:14:31;29.60;87.50
49549;DHT22;35450;44.518;7.466;2023-07-22T17:17:36;29.70;88.80
49549;DHT22;35450;44.518;7.466;2023-07-22T17:20:40;29.60;89.30
49549;DHT22;35450;44.518;7.466;2023-07-22T17:23:44;29.40;90.00
49549;DHT22;35450;44.518;7.466;2023-07-22T17:26:48;29.10;90.40
49549;DHT22;35450;44.518;7.466;2023-07-22T17:29:52;29.00;90.60
49549;DHT22;35450;44.518;7.466;2023-07-22T17:32:56;29.10;90.80
49549;DHT22;35450;44.518;7.466;2023-07-22T17:36:00;29.00;90.90
49549;DHT22;35450;44.518;7.466;2023-07-22T17:39:04;29.00;91.00
49549;DHT22;35450;44.518;7.466;2023-07-22T17:42:07;29.00;90.90
49549;DHT22;35450;44.518;7.466;2023-07-22T17:45:11;28.80;91.10
49549;DHT22;35450;44.518;7.466;2023-07-22T17:48:15;28.70;91.40
49549;DHT22;35450;44.518;7.466;2023-07-22T17:51:19;28.70;91.50
49549;DHT22;35450;44.518;7.466;2023-07-22T17:54:23;28.60;91.50
49549;DHT22;35450;44.518;7.466;2023-07-22T17:57:28;28.40;91.70
49549;DHT22;35450;44.518;7.466;2023-07-22T18:00:32;28.30;91.80
49549;DHT22;35450;44.518;7.466;2023-07-22T18:03:36;28.10;91.50
49549;DHT22;35450;44.518;7.466;2023-07-22T18:06:40;28.00;91.50
49549;DHT22;35450;44.518;7.466;2023-07-22T18:09:44;27.90;91.60
49549;DHT22;35450;44.518;7.466;2023-07-22T18:12:48;27.70;91.60
49549;DHT22;35450;44.518;7.466;2023-07-22T18:15:52;27.70;91.70
49549;DHT22;35450;44.518;7.466;2023-07-22T18:18:56;27.70;91.60
49549;DHT22;35450;44.518;7.466;2023-07-22T18:22:00;27.60;91.50
49549;DHT22;35450;44.518;7.466;2023-07-22T18:25:04;27.60;91.70
49549;DHT22;35450;44.518;7.466;2023-07-22T18:28:08;27.60;91.60
49549;DHT22;35450;44.518;7.466;2023-07-22T18:31:13;27.70;91.50
49549;DHT22;35450;44.518;7.466;2023-07-22T18:34:17;27.70;91.40
49549;DHT22;35450;44.518;7.466;2023-07-22T18:37:26;27.70;91.40
49549;DHT22;35450;44.518;7.466;2023-07-22T18:40:30;27.60;91.60
49549;DHT22;35450;44.518;7.466;2023-07-22T18:43:34;27.60;91.50
49549;DHT22;35450;44.518;7.466;2023-07-22T18:46:39;27.50;91.60
49549;DHT22;35450;44.518;7.466;2023-07-22T18:49:43;27.50;91.50
49549;DHT22;35450;44.518;7.466;2023-07-22T18:52:47;27.50;91.60
49549;DHT22;35450;44.518;7.466;2023-07-22T18:55:51;27.40;91.60
49549;DHT22;35450;44.518;7.466;2023-07-22T18:58:55;27.50;91.70
49549;DHT22;35450;44.518;7.466;2023-07-22T19:01:59;27.50;91.80
49549;DHT22;35450;44.518;7.466;2023-07-22T19:05:04;27.50;91.90
49549;DHT22;35450;44.518;7.466;2023-07-22T19:08:08;27.60;91.90
49549;DHT22;35450;44.518;7.466;2023-07-22T19:11:12;27.60;92.00
49549;DHT22;35450;44.518;7.466;2023-07-22T19:14:16;27.60;92.00
49549;DHT22;35450;44.518;7.466;2023-07-22T19:17:19;27.60;92.10
49549;DHT22;35450;44.518;7.466;2023-07-22T19:20:24;27.60;92.20
49549;DHT22;35450;44.518;7.466;2023-07-22T19:23:28;27.50;92.20
49549;DHT22;35450;44.518;7.466;2023-07-22T19:26:32;27.50;92.20
49549;DHT22;35450;44.518;7.466;2023-07-22T19:29:36;27.40;92.20
49549;DHT22;35450;44.518;7.466;2023-07-22T19:32:40;27.40;92.40
49549;DHT22;35450;44.518;7.466;2023-07-22T19:35:44;27.30;92.50